Time;durP1;ratioP1;P1;durP2;ratioP2;P2;SDS_P1;SDS_P2;PMS_P1;PMS_P2;Temp;Humidity;BMP_temperature;BMP_pressure;BME280_temperature;BME280_humidity;BME280_pressure;Samples;Min_cycle;Max_cycle;Signal;HPM_P1;HPM_P2
2021/12/18 00:00:51;;;;;;;8.03;2.60;;;29.00;99.90;;;;;;5070965;28;20175;-71
2021/12/18 00:03:19;;;;;;;11.47;3.07;;;28.90;99.90;;;;;;5075332;28;20178;-73
2021/12/18 00:05:46;;;;;;;6.33;2.60;;;29.00;99.90;;;;;;5072989;28;20190;-72
2021/12/18 00:08:15;;;;;;;10.30;2.93;;;29.00;99.90;;;;;;5068542;28;20190;-72
2021/12/18 00:10:45;;;;;;;13.00;3.23;;;29.00;99.90;;;;;;5071029;28;20210;-71
2021/12/18 00:13:14;;;;;;;13.00;3.50;;;29.00;99.90;;;;;;5051987;28;20183;-71
2021/12/18 00:15:41;;;;;;;10.87;3.17;;;29.10;99.90;;;;;;5071143;28;20261;-72
2021/12/18 00:18:08;;;;;;;13.80;3.13;;;29.30;99.90;;;;;;5070921;28;20190;-72
2021/12/18 00:20:37;;;;;;;9.80;3.53;;;29.60;99.90;;;;;;5051106;28;20179;-73
2021/12/18 00:23:06;;;;;;;17.77;3.50;;;29.90;99.90;;;;;;5071868;28;20179;-71
2021/12/18 00:25:33;;;;;;;15.63;3.57;;;30.10;99.90;;;;;;5065434;28;20183;-72
2021/12/18 00:28:00;;;;;;;9.80;3.13;;;30.10;99.90;;;;;;5072745;28;20190;-71
2021/12/18 00:30:28;;;;;;;16.03;3.33;;;30.20;99.90;;;;;;5075013;28;20215;-72
2021/12/18 00:32:55;;;;;;;7.50;2.23;;;30.10;99.90;;;;;;5069461;28;20183;-71
2021/12/18 00:35:23;;;;;;;10.27;2.47;;;30.20;99.90;;;;;;5073889;28;20185;-71
2021/12/18 00:37:50;;;;;;;9.30;2.30;;;30.30;99.90;;;;;;5075367;28;20175;-72
2021/12/18 00:40:25;;;;;;;9.20;2.47;;;30.80;99.90;;;;;;5071059;28;20224;-71
2021/12/18 00:45:24;;;;;;;6.60;2.15;;;31.40;99.90;;;;;;5071007;28;20179;-72
2021/12/18 00:47:53;;;;;;;10.02;2.38;;;31.50;99.90;;;;;;5073913;28;20324;-71
2021/12/18 00:50:26;;;;;;;8.13;2.85;;;31.70;99.90;;;;;;5071043;28;20203;-70
2021/12/18 00:52:53;;;;;;;12.93;2.90;;;31.80;99.90;;;;;;5071817;28;20286;-70
2021/12/18 00:55:21;;;;;;;5.72;2.50;;;31.70;99.90;;;;;;5070688;28;20246;-70
2021/12/18 00:57:49;;;;;;;7.55;3.03;;;32.00;99.90;;;;;;5072751;28;20246;-71
2021/12/18 01:00:23;;;;;;;14.43;3.42;;;31.90;99.90;;;;;;5070489;28;20172;-70
2021/12/18 01:02:58;;;;;;;10.63;3.58;;;31.80;99.90;;;;;;5064588;28;20202;-70
2021/12/18 01:05:28;;;;;;;17.92;3.50;;;32.00;99.90;;;;;;5071699;28;20183;-70
2021/12/18 01:07:57;;;;;;;13.82;3.60;;;32.10;99.90;;;;;;5073102;28;20172;-72
2021/12/18 01:13:00;;;;;;;12.30;3.42;;;32.20;99.90;;;;;;5074155;28;20251;-70
2021/12/18 01:23:26;;;;;;;17.20;3.53;;;32.10;99.90;;;;;;5074262;28;20230;-70
2021/12/18 01:25:55;;;;;;;17.27;4.00;;;32.10;99.90;;;;;;5073947;28;20183;-70
2021/12/18 01:28:23;;;;;;;12.85;3.60;;;31.90;99.90;;;;;;5073444;28;20333;-69
2021/12/18 01:30:51;;;;;;;12.40;3.33;;;31.90;99.90;;;;;;5075528;28;20266;-70
2021/12/18 01:33:19;;;;;;;14.77;4.03;;;31.80;99.90;;;;;;5071912;28;20232;-71
2021/12/18 01:35:47;;;;;;;14.82;3.88;;;31.50;99.90;;;;;;5073216;28;20189;-70
2021/12/18 01:38:15;;;;;;;13.70;3.72;;;31.30;99.90;;;;;;5077666;28;20175;-70
2021/12/18 01:40:43;;;;;;;13.07;3.77;;;31.30;99.90;;;;;;5074026;28;20623;-70
2021/12/18 01:44:01;;;;;;;14.27;4.13;;;31.10;99.90;;;;;;5076346;28;20563;-70
2021/12/18 01:51:32;;;;;;;13.10;4.13;;;31.80;99.90;;;;;;5074189;28;20257;-69
2021/12/18 01:54:02;;;;;;;13.27;4.22;;;31.50;99.90;;;;;;5073685;28;20214;-69
2021/12/18 01:56:29;;;;;;;17.27;4.57;;;31.60;99.90;;;;;;5073547;28;20290;-70
2021/12/18 01:59:00;;;;;;;21.48;4.78;;;31.70;99.90;;;;;;5073699;28;20190;-70
2021/12/18 02:01:28;;;;;;;13.52;4.13;;;31.80;99.90;;;;;;5073341;28;20249;-69
2021/12/18 02:03:56;;;;;;;12.75;4.32;;;32.00;99.90;;;;;;5073921;28;20172;-69
2021/12/18 02:06:24;;;;;;;18.90;4.63;;;32.00;99.90;;;;;;5073294;28;20225;-69
2021/12/18 02:08:51;;;;;;;14.68;4.22;;;32.20;99.90;;;;;;5068290;28;20726;-69
2021/12/18 02:19:37;;;;;;;18.52;3.85;;;32.40;99.90;;;;;;5074650;28;20268;-68
2021/12/18 02:22:05;;;;;;;18.10;4.05;;;32.30;99.90;;;;;;5072522;28;20719;-70
2021/12/18 02:24:33;;;;;;;12.88;3.95;;;32.50;99.90;;;;;;5076308;28;20324;-70
2021/12/18 02:27:00;;;;;;;15.40;3.88;;;32.70;99.90;;;;;;5069744;28;20227;-68
2021/12/18 02:29:32;;;;;;;16.80;4.53;;;32.70;99.90;;;;;;5072787;28;20624;-69
2021/12/18 02:31:59;;;;;;;20.58;4.28;;;32.40;99.90;;;;;;5065495;28;20179;-69
2021/12/18 02:34:30;;;;;;;14.30;4.32;;;32.10;99.90;;;;;;5073010;28;20313;-69
2021/12/18 02:37:05;;;;;;;12.30;3.90;;;31.70;99.90;;;;;;5071824;28;20175;-70
2021/12/18 02:39:58;;;;;;;13.75;4.05;;;31.40;99.90;;;;;;5072394;28;20648;-72
2021/12/18 02:42:25;;;;;;;19.15;4.40;;;31.50;99.90;;;;;;5070471;28;20214;-68
2021/12/18 02:44:53;;;;;;;21.35;4.40;;;32.00;99.90;;;;;;5071643;28;20641;-69
2021/12/18 02:47:20;;;;;;;19.02;4.32;;;31.90;99.90;;;;;;5072654;28;20332;-70
2021/12/18 02:49:50;;;;;;;20.63;4.57;;;32.10;99.90;;;;;;5072863;28;20236;-69
2021/12/18 02:52:19;;;;;;;12.75;3.55;;;32.20;99.90;;;;;;5072384;28;20207;-70
2021/12/18 02:54:47;;;;;;;17.08;4.80;;;32.60;99.90;;;;;;5071821;28;20222;-69
2021/12/18 02:57:15;;;;;;;23.83;4.30;;;32.80;99.90;;;;;;5072022;28;20186;-69
2021/12/18 02:59:51;;;;;;;17.80;4.00;;;32.60;99.90;;;;;;5072560;28;20198;-70
2021/12/18 03:02:20;;;;;;;11.35;3.65;;;32.90;99.90;;;;;;5071986;28;20214;-70
2021/12/18 03:04:53;;;;;;;13.98;4.35;;;33.50;99.90;;;;;;5069802;28;20644;-67
2021/12/18 03:07:24;;;;;;;11.98;3.70;;;33.90;99.90;;;;;;5071257;28;20190;-68
2021/12/18 03:23:35;;;;;;;16.50;3.70;;;32.40;99.90;;;;;;5070365;28;20219;-70
2021/12/18 03:26:02;;;;;;;14.00;3.25;;;32.30;99.90;;;;;;5072083;28;20656;-69
2021/12/18 03:28:31;;;;;;;14.05;3.38;;;32.30;99.90;;;;;;5071276;28;20175;-70
2021/12/18 03:30:59;;;;;;;13.82;3.63;;;32.60;99.90;;;;;;5071440;28;20617;-72
2021/12/18 03:33:27;;;;;;;14.93;4.15;;;32.90;99.90;;;;;;5071514;28;20253;-70
2021/12/18 03:35:55;;;;;;;12.60;4.18;;;32.80;99.90;;;;;;5070933;28;20187;-70
2021/12/18 03:38:22;;;;;;;13.80;3.80;;;32.90;99.90;;;;;;5071660;28;20193;-70
2021/12/18 03:40:50;;;;;;;10.98;3.45;;;32.60;99.90;;;;;;5065751;28;20641;-72
2021/12/18 03:43:17;;;;;;;12.15;3.65;;;32.70;99.90;;;;;;5070826;28;20540;-70
2021/12/18 03:45:44;;;;;;;17.67;3.90;;;33.20;99.90;;;;;;5071805;28;20187;-70
2021/12/18 03:48:12;;;;;;;12.45;3.63;;;33.50;99.90;;;;;;5073776;28;20190;-70
2021/12/18 03:50:39;;;;;;;15.63;3.90;;;33.80;99.90;;;;;;5071768;28;20263;-70
2021/12/18 03:53:06;;;;;;;14.45;3.90;;;34.10;99.90;;;;;;5073184;28;20266;-70
2021/12/18 03:55:34;;;;;;;18.52;3.60;;;34.00;99.90;;;;;;5071515;28;20249;-72
2021/12/18 03:58:01;;;;;;;9.27;3.47;;;33.50;99.90;;;;;;5071530;28;20698;-71
2021/12/18 04:00:28;;;;;;;20.25;4.28;;;33.00;99.90;;;;;;5071180;28;20178;-71
2021/12/18 04:02:56;;;;;;;12.95;3.63;;;32.80;99.90;;;;;;5071171;28;20175;-70
2021/12/18 04:05:23;;;;;;;15.90;4.03;;;32.50;99.90;;;;;;5070881;28;20235;-70
2021/12/18 04:07:51;;;;;;;14.48;4.00;;;32.50;99.90;;;;;;5071740;28;20190;-70
2021/12/18 04:10:19;;;;;;;12.77;3.17;;;32.80;99.90;;;;;;5067608;28;20215;-69
2021/12/18 04:12:48;;;;;;;15.45;4.68;;;33.10;99.90;;;;;;5071111;28;20174;-69
2021/12/18 04:15:16;;;;;;;16.63;3.85;;;32.70;99.90;;;;;;5070314;28;20183;-70
2021/12/18 04:17:43;;;;;;;12.93;3.67;;;32.70;99.90;;;;;;5071857;28;20187;-69
2021/12/18 04:20:11;;;;;;;13.80;3.70;;;32.30;99.90;;;;;;5068474;28;20191;-70
2021/12/18 04:22:38;;;;;;;19.50;5.55;;;32.10;99.90;;;;;;5075240;28;20229;-70
2021/12/18 04:25:06;;;;;;;17.10;3.97;;;31.80;99.90;;;;;;5071110;28;20175;-68
2021/12/18 04:27:34;;;;;;;19.35;5.75;;;31.60;99.90;;;;;;5081373;28;20183;-70
2021/12/18 04:30:01;;;;;;;21.63;6.85;;;31.40;99.90;;;;;;5071209;28;20207;-70
2021/12/18 04:32:29;;;;;;;16.67;4.70;;;31.50;99.90;;;;;;5070335;28;20288;-69
2021/12/18 04:34:56;;;;;;;16.10;3.65;;;32.00;99.90;;;;;;5069587;28;20212;-70
2021/12/18 04:37:23;;;;;;;18.00;4.63;;;32.70;99.90;;;;;;5072808;28;20633;-70
2021/12/18 04:39:52;;;;;;;15.77;3.85;;;33.30;99.90;;;;;;5073244;28;20663;-72
2021/12/18 04:42:20;;;;;;;9.70;3.42;;;33.40;99.90;;;;;;5076251;28;20167;-72
2021/12/18 04:44:49;;;;;;;15.70;5.00;;;33.40;99.90;;;;;;5071334;28;20207;-71
2021/12/18 04:47:16;;;;;;;12.43;3.80;;;33.90;99.90;;;;;;5073996;28;20210;-71
2021/12/18 04:49:46;;;;;;;12.13;3.60;;;34.30;99.90;;;;;;5075302;28;20211;-71
2021/12/18 04:52:14;;;;;;;15.73;4.10;;;34.40;99.90;;;;;;5072696;28;20266;-70
2021/12/18 04:54:41;;;;;;;12.90;3.60;;;34.80;99.70;;;;;;5074240;28;20318;-71
2021/12/18 04:57:08;;;;;;;12.80;3.78;;;35.20;99.20;;;;;;5074712;28;20187;-70
2021/12/18 04:59:42;;;;;;;11.60;3.42;;;35.20;99.10;;;;;;5071150;28;20175;-70
2021/12/18 05:02:11;;;;;;;14.73;3.83;;;35.10;98.90;;;;;;5071864;28;20183;-70
2021/12/18 05:04:38;;;;;;;17.02;4.20;;;35.20;98.70;;;;;;5069188;28;20191;-70
2021/12/18 05:07:05;;;;;;;14.43;3.65;;;35.30;98.60;;;;;;5070782;28;20186;-70
2021/12/18 05:09:33;;;;;;;16.50;3.88;;;35.20;98.80;;;;;;5074354;28;20230;-70
2021/12/18 05:12:00;;;;;;;12.73;4.00;;;35.10;98.80;;;;;;5074530;28;20227;-71
2021/12/18 05:14:27;;;;;;;25.65;4.47;;;35.10;98.90;;;;;;5071016;28;20280;-70
2021/12/18 05:16:55;;;;;;;16.25;3.60;;;34.90;98.90;;;;;;5074122;28;20178;-70
2021/12/18 05:19:22;;;;;;;14.70;3.90;;;35.00;99.10;;;;;;5069882;28;20238;-70
2021/12/18 05:21:49;;;;;;;18.45;4.18;;;34.30;99.30;;;;;;5073834;28;20187;-71
2021/12/18 05:24:17;;;;;;;15.73;3.75;;;33.80;99.90;;;;;;5074318;28;20182;-70
2021/12/18 05:26:44;;;;;;;15.68;3.92;;;33.70;99.90;;;;;;5074382;28;20191;-71
2021/12/18 05:29:11;;;;;;;15.00;4.15;;;33.40;99.90;;;;;;5055774;28;20198;-70
2021/12/18 05:31:39;;;;;;;14.02;3.75;;;32.90;99.90;;;;;;5073931;28;20595;-69
2021/12/18 05:34:06;;;;;;;16.15;4.65;;;32.60;99.90;;;;;;5074438;28;20233;-69
2021/12/18 05:39:07;;;;;;;15.40;4.85;;;32.60;99.90;;;;;;5074067;28;20700;-70
2021/12/18 05:41:34;;;;;;;15.93;4.15;;;33.30;99.90;;;;;;5070127;28;20179;-70
2021/12/18 05:44:03;;;;;;;14.55;4.53;;;34.40;99.90;;;;;;5073546;28;20271;-70
2021/12/18 05:46:30;;;;;;;19.80;4.25;;;34.80;99.30;;;;;;5073501;28;20179;-69
2021/12/18 05:48:58;;;;;;;18.15;5.55;;;34.50;99.60;;;;;;5074089;28;20196;-70
2021/12/18 05:51:25;;;;;;;18.60;4.57;;;34.60;99.50;;;;;;5055753;28;20583;-70
2021/12/18 05:53:53;;;;;;;14.82;4.50;;;34.00;99.80;;;;;;5073390;28;20183;-70
2021/12/18 05:56:20;;;;;;;20.48;4.57;;;33.90;99.90;;;;;;5073564;28;20199;-70
2021/12/18 05:58:48;;;;;;;18.90;4.68;;;33.70;99.90;;;;;;5072353;28;20178;-70
2021/12/18 06:01:16;;;;;;;17.48;4.40;;;33.30;99.90;;;;;;5073062;28;20175;-70
2021/12/18 06:03:43;;;;;;;17.95;4.50;;;32.80;99.90;;;;;;5078674;28;20646;-68
2021/12/18 06:06:11;;;;;;;22.35;4.75;;;32.70;99.90;;;;;;5073547;28;20183;-70
2021/12/18 06:08:42;;;;;;;17.85;4.90;;;32.40;99.90;;;;;;5074024;28;20172;-70
2021/12/18 06:11:14;;;;;;;26.00;5.00;;;32.50;99.90;;;;;;5070985;28;20186;-70
2021/12/18 06:13:42;;;;;;;18.02;3.97;;;32.80;99.90;;;;;;5075344;28;20515;-71
2021/12/18 06:16:10;;;;;;;20.70;4.88;;;32.60;99.90;;;;;;5073117;28;20175;-70
2021/12/18 06:18:45;;;;;;;19.70;4.72;;;32.90;99.90;;;;;;5071932;28;20262;-70
2021/12/18 06:21:15;;;;;;;22.73;5.68;;;32.60;99.90;;;;;;5076399;28;20190;-70
2021/12/18 06:23:47;;;;;;;20.95;5.10;;;32.30;99.90;;;;;;5077831;28;20187;-68
2021/12/18 06:26:15;;;;;;;23.15;5.18;;;31.80;99.90;;;;;;5073832;28;20274;-70
2021/12/18 06:28:42;;;;;;;23.92;5.32;;;31.70;99.90;;;;;;5077326;28;20671;-70
2021/12/18 06:31:10;;;;;;;19.17;5.22;;;31.80;99.90;;;;;;5069806;28;20235;-71
2021/12/18 06:33:37;;;;;;;18.90;5.00;;;32.80;99.90;;;;;;5075086;28;20879;-71
2021/12/18 06:36:05;;;;;;;20.23;5.07;;;33.60;99.90;;;;;;5078069;28;20214;-70
2021/12/18 06:38:32;;;;;;;19.27;5.05;;;33.80;99.90;;;;;;5073459;28;20186;-70
2021/12/18 06:41:00;;;;;;;20.50;4.93;;;34.00;99.90;;;;;;5072920;28;20189;-70
2021/12/18 06:43:27;;;;;;;15.30;4.47;;;34.20;99.90;;;;;;5079560;28;20557;-70
2021/12/18 06:45:54;;;;;;;17.40;4.47;;;34.30;99.90;;;;;;5073046;28;20235;-70
2021/12/18 06:48:21;;;;;;;17.45;6.10;;;34.40;99.90;;;;;;5071607;28;20175;-69
2021/12/18 06:50:50;;;;;;;15.77;4.10;;;33.70;99.90;;;;;;5070774;28;20187;-69
2021/12/18 06:53:18;;;;;;;22.55;4.88;;;33.60;99.90;;;;;;5071950;28;20641;-69
2021/12/18 06:55:46;;;;;;;18.80;4.95;;;33.30;99.90;;;;;;5069642;28;20219;-69
2021/12/18 06:58:13;;;;;;;18.33;5.22;;;33.70;99.90;;;;;;5072259;28;20718;-69
2021/12/18 07:00:41;;;;;;;17.77;4.78;;;32.90;99.90;;;;;;5072328;28;20179;-71
2021/12/18 07:03:08;;;;;;;22.88;5.60;;;32.40;99.90;;;;;;5072370;28;20186;-69
2021/12/18 07:05:35;;;;;;;23.40;5.13;;;32.20;99.90;;;;;;5072447;28;20262;-70
2021/12/18 07:08:02;;;;;;;25.15;5.53;;;32.80;99.90;;;;;;5073427;28;20557;-70
2021/12/18 07:10:35;;;;;;;14.30;3.70;;;33.50;99.90;;;;;;5072070;28;20238;-71
2021/12/18 07:13:03;;;;;;;13.05;4.07;;;34.10;99.90;;;;;;5073729;28;20171;-70
2021/12/18 07:15:30;;;;;;;17.30;5.03;;;34.00;99.90;;;;;;5073182;28;21342;-70
2021/12/18 07:17:57;;;;;;;22.98;5.30;;;33.40;99.90;;;;;;5073405;28;20348;-69
2021/12/18 07:20:27;;;;;;;14.55;4.75;;;32.40;99.90;;;;;;5071759;28;20186;-69
2021/12/18 07:22:55;;;;;;;10.77;3.78;;;32.00;99.90;;;;;;5072147;28;20237;-68
2021/12/18 07:25:22;;;;;;;19.98;4.93;;;32.00;99.90;;;;;;5071513;28;20177;-69
2021/12/18 07:27:50;;;;;;;19.60;5.05;;;32.00;99.90;;;;;;5071786;28;20240;-69
2021/12/18 07:30:17;;;;;;;17.98;4.72;;;32.00;99.90;;;;;;5071895;28;20213;-70
2021/12/18 07:32:45;;;;;;;25.33;5.65;;;32.10;99.90;;;;;;5071179;28;20180;-69
2021/12/18 07:35:13;;;;;;;19.20;5.78;;;31.80;99.90;;;;;;5073398;28;20687;-69
2021/12/18 07:37:40;;;;;;;15.82;5.50;;;31.70;99.90;;;;;;5072415;28;20262;-70
2021/12/18 07:40:09;;;;;;;24.92;5.32;;;31.50;99.90;;;;;;5074252;28;20179;-68
2021/12/18 07:42:37;;;;;;;21.67;5.35;;;31.00;99.90;;;;;;5071521;28;20183;-69
2021/12/18 07:45:05;;;;;;;21.35;4.78;;;30.70;99.90;;;;;;5071556;28;20186;-68
2021/12/18 07:47:33;;;;;;;22.27;5.10;;;30.60;99.90;;;;;;5074361;28;20668;-71
2021/12/18 07:50:02;;;;;;;19.43;5.33;;;30.40;99.90;;;;;;5065178;28;20215;-72
2021/12/18 07:52:29;;;;;;;20.33;5.00;;;30.30;99.90;;;;;;5071210;28;20177;-69
2021/12/18 07:54:57;;;;;;;18.50;4.90;;;30.20;99.90;;;;;;5057305;28;20223;-69
2021/12/18 07:57:24;;;;;;;16.13;4.77;;;30.00;99.90;;;;;;5071243;28;20179;-69
2021/12/18 07:59:51;;;;;;;31.17;5.33;;;29.90;99.90;;;;;;5071886;28;20175;-69
2021/12/18 08:02:19;;;;;;;17.10;4.90;;;29.80;99.90;;;;;;5071241;28;20630;-70
2021/12/18 08:04:46;;;;;;;24.83;5.27;;;29.70;99.90;;;;;;5071947;28;20622;-70
2021/12/18 08:07:13;;;;;;;23.13;5.17;;;29.60;99.90;;;;;;5071093;28;20298;-70
2021/12/18 08:09:40;;;;;;;27.70;5.93;;;29.50;99.90;;;;;;5064638;28;20218;-69
2021/12/18 08:12:09;;;;;;;23.57;5.43;;;29.40;99.90;;;;;;5066129;28;20179;-70
2021/12/18 08:14:36;;;;;;;21.40;6.23;;;29.20;99.90;;;;;;5084053;28;20179;-69
2021/12/18 08:17:03;;;;;;;27.37;6.70;;;29.10;99.90;;;;;;5070522;28;20534;-72
2021/12/18 08:19:31;;;;;;;30.70;6.50;;;29.00;99.90;;;;;;5070862;28;20657;-70
2021/12/18 08:21:58;;;;;;;28.53;6.20;;;28.90;99.90;;;;;;5072546;28;20215;-70
2021/12/18 08:24:25;;;;;;;29.87;6.60;;;28.80;99.90;;;;;;5075091;28;20183;-70
2021/12/18 08:26:53;;;;;;;28.00;6.57;;;28.80;99.90;;;;;;5057308;28;20653;-70
2021/12/18 08:29:21;;;;;;;22.07;5.93;;;28.70;99.90;;;;;;5075294;28;20602;-70
2021/12/18 08:31:48;;;;;;;21.80;6.27;;;28.60;99.90;;;;;;5075026;28;20187;-70
2021/12/18 08:34:15;;;;;;;29.47;6.53;;;28.60;99.90;;;;;;5073197;28;20576;-69
2021/12/18 08:36:43;;;;;;;29.17;6.13;;;28.60;99.90;;;;;;5075537;28;20269;-70
2021/12/18 08:39:10;;;;;;;31.70;7.97;;;28.60;99.90;;;;;;5075037;28;20262;-69
2021/12/18 08:41:38;;;;;;;23.30;5.87;;;28.60;99.90;;;;;;5075663;28;20177;-71
2021/12/18 08:44:06;;;;;;;28.80;6.77;;;28.60;99.90;;;;;;5075379;28;20240;-70
2021/12/18 08:46:34;;;;;;;31.50;6.27;;;28.60;99.90;;;;;;5075163;28;20210;-70
2021/12/18 08:49:02;;;;;;;29.93;6.30;;;28.60;99.90;;;;;;5074990;28;20294;-71
2021/12/18 08:51:29;;;;;;;24.33;7.83;;;28.60;99.90;;;;;;5075248;28;20190;-71
2021/12/18 08:53:56;;;;;;;23.00;8.37;;;28.60;99.90;;;;;;5074873;28;20191;-70
2021/12/18 08:56:24;;;;;;;24.03;5.60;;;28.50;99.90;;;;;;5074636;28;20191;-71
2021/12/18 08:58:53;;;;;;;24.83;5.37;;;28.50;99.90;;;;;;5075148;28;20221;-71
2021/12/18 09:01:26;;;;;;;25.67;5.73;;;28.40;99.90;;;;;;5074940;28;20207;-70
2021/12/18 09:03:53;;;;;;;26.80;5.80;;;28.30;99.90;;;;;;5075002;28;20286;-70
2021/12/18 09:06:22;;;;;;;24.67;6.63;;;28.20;99.90;;;;;;5074599;28;20244;-71
2021/12/18 09:08:49;;;;;;;17.90;5.30;;;28.20;99.90;;;;;;5075095;28;20207;-70
2021/12/18 09:11:16;;;;;;;28.67;5.80;;;28.10;99.90;;;;;;5074433;28;20206;-70
2021/12/18 09:13:44;;;;;;;21.03;5.43;;;28.10;99.90;;;;;;5074706;28;20194;-71
2021/12/18 09:16:11;;;;;;;31.40;5.53;;;28.10;99.90;;;;;;5072654;28;20525;-71
2021/12/18 09:18:39;;;;;;;21.27;5.80;;;28.00;99.90;;;;;;5074845;28;20179;-71
2021/12/18 09:21:06;;;;;;;23.63;5.63;;;28.00;99.90;;;;;;5074342;28;20214;-71
2021/12/18 09:23:33;;;;;;;27.40;5.93;;;28.00;99.90;;;;;;5074020;28;20199;-72
2021/12/18 09:26:01;;;;;;;27.33;7.13;;;27.90;99.90;;;;;;5070992;28;20180;-71
2021/12/18 09:28:28;;;;;;;20.93;7.27;;;27.90;99.90;;;;;;5074510;28;20652;-72
2021/12/18 09:30:56;;;;;;;22.73;5.33;;;27.90;99.90;;;;;;5074387;28;20202;-71
2021/12/18 09:33:23;;;;;;;22.97;6.10;;;27.90;99.90;;;;;;5073683;28;20294;-71
2021/12/18 09:35:50;;;;;;;23.37;6.37;;;27.90;99.90;;;;;;5074199;28;20187;-72
2021/12/18 09:38:18;;;;;;;22.53;5.43;;;27.90;99.90;;;;;;5074439;28;20171;-71
2021/12/18 09:40:45;;;;;;;26.30;7.37;;;27.80;99.90;;;;;;5073903;28;20179;-72
2021/12/18 09:43:13;;;;;;;26.47;7.10;;;27.70;99.90;;;;;;5074120;28;20194;-71
2021/12/18 09:45:40;;;;;;;34.40;11.20;;;27.70;99.90;;;;;;5074194;28;20266;-71
2021/12/18 09:48:08;;;;;;;27.10;7.03;;;27.70;99.90;;;;;;5073972;28;20179;-71
2021/12/18 09:50:37;;;;;;;25.80;6.60;;;27.70;99.90;;;;;;5073973;28;20245;-71
2021/12/18 09:53:06;;;;;;;29.30;7.07;;;27.60;99.90;;;;;;5074002;28;20265;-71
2021/12/18 09:55:34;;;;;;;23.33;6.67;;;27.60;99.90;;;;;;5073188;28;20354;-71
2021/12/18 09:58:01;;;;;;;24.93;6.00;;;27.60;99.90;;;;;;5074265;28;20237;-71
2021/12/18 10:00:28;;;;;;;23.07;5.50;;;27.60;99.90;;;;;;5073552;28;20187;-71
2021/12/18 10:02:55;;;;;;;25.13;6.20;;;27.50;99.90;;;;;;5074026;28;20232;-72
2021/12/18 10:05:33;;;;;;;23.90;6.00;;;27.50;99.90;;;;;;5073740;28;20192;-71
2021/12/18 10:08:14;;;;;;;29.40;6.93;;;27.50;99.90;;;;;;5074019;28;20679;-69
2021/12/18 10:11:05;;;;;;;27.23;7.13;;;27.50;99.90;;;;;;5071713;28;20259;-70
2021/12/18 10:13:57;;;;;;;29.03;6.00;;;27.40;99.90;;;;;;5067621;28;20191;-70
2021/12/18 10:16:27;;;;;;;29.33;6.63;;;27.30;99.90;;;;;;5072814;28;20191;-70
2021/12/18 10:18:57;;;;;;;22.20;6.73;;;27.40;99.90;;;;;;5073445;28;20249;-70
2021/12/18 10:21:27;;;;;;;27.90;6.53;;;27.30;99.90;;;;;;5072245;28;20198;-69
2021/12/18 10:23:57;;;;;;;24.93;6.47;;;27.30;99.90;;;;;;5070807;28;20179;-70
2021/12/18 10:26:54;;;;;;;33.13;6.57;;;27.30;99.90;;;;;;5073054;28;20195;-70
2021/12/18 10:29:36;;;;;;;33.10;7.53;;;27.40;99.90;;;;;;5060643;28;20621;-70
2021/12/18 10:32:13;;;;;;;25.30;6.53;;;27.30;99.90;;;;;;5072678;28;20179;-70
2021/12/18 10:34:42;;;;;;;27.73;6.97;;;27.30;99.90;;;;;;5070636;28;20535;-71
2021/12/18 10:37:16;;;;;;;28.27;6.20;;;27.20;99.90;;;;;;5072461;28;20187;-71
2021/12/18 10:40:06;;;;;;;26.13;6.40;;;27.20;99.90;;;;;;5072262;28;20171;-71
2021/12/18 10:42:40;;;;;;;22.27;5.50;;;27.20;99.90;;;;;;5072484;28;20191;-71
2021/12/18 10:45:25;;;;;;;26.07;6.60;;;27.20;99.90;;;;;;5072473;28;20185;-71
2021/12/18 10:48:29;;;;;;;26.23;6.13;;;27.20;99.90;;;;;;5072558;28;20274;-70
2021/12/18 10:50:56;;;;;;;25.03;6.63;;;27.20;99.90;;;;;;5010451;28;20308;-71
2021/12/18 10:53:30;;;;;;;26.80;5.57;;;27.10;99.90;;;;;;5060903;28;20645;-71
2021/12/18 10:55:59;;;;;;;20.97;5.30;;;27.10;99.90;;;;;;5072356;28;20587;-71
2021/12/18 10:58:38;;;;;;;26.00;6.27;;;27.10;99.90;;;;;;5072681;28;20179;-71
2021/12/18 11:01:11;;;;;;;23.90;5.53;;;27.10;99.90;;;;;;5071346;28;20194;-71
2021/12/18 11:03:47;;;;;;;26.03;6.47;;;27.10;99.90;;;;;;5067170;28;20178;-71
2021/12/18 11:06:20;;;;;;;24.33;5.57;;;27.10;99.90;;;;;;5073128;28;20547;-71
2021/12/18 11:09:01;;;;;;;25.10;5.53;;;27.10;99.90;;;;;;5072218;28;20218;-71
2021/12/18 11:14:15;;;;;;;22.90;5.60;;;27.10;99.90;;;;;;5071824;28;20190;-71
2021/12/18 11:16:48;;;;;;;21.63;5.60;;;27.10;99.90;;;;;;5072546;28;20312;-71
2021/12/18 11:19:21;;;;;;;24.03;5.47;;;27.10;99.90;;;;;;5071839;28;20193;-70
2021/12/18 11:21:52;;;;;;;24.73;5.83;;;27.10;99.90;;;;;;5072152;28;20232;-71
2021/12/18 11:24:22;;;;;;;25.83;5.47;;;27.20;99.90;;;;;;5072841;28;20183;-71
2021/12/18 11:27:06;;;;;;;23.90;5.83;;;27.20;99.90;;;;;;5072091;28;20202;-70
2021/12/18 11:29:44;;;;;;;19.23;5.43;;;27.20;99.90;;;;;;5072125;28;20246;-70
2021/12/18 11:32:19;;;;;;;22.67;6.43;;;27.20;99.90;;;;;;5071242;28;20203;-69
2021/12/18 11:34:52;;;;;;;17.00;5.97;;;27.20;99.90;;;;;;5072055;28;20606;-70
2021/12/18 11:37:20;;;;;;;22.17;6.10;;;27.30;99.90;;;;;;5071584;28;20221;-69
2021/12/18 11:39:49;;;;;;;18.93;5.77;;;27.30;99.90;;;;;;5071690;28;20179;-71
2021/12/18 11:42:18;;;;;;;26.27;6.00;;;27.30;99.90;;;;;;5071605;28;20209;-71
2021/12/18 11:45:07;;;;;;;20.47;6.20;;;27.30;99.90;;;;;;5072000;28;20194;-72
2021/12/18 11:47:37;;;;;;;24.90;5.90;;;27.30;99.90;;;;;;5071660;28;20176;-71
2021/12/18 11:50:28;;;;;;;29.63;6.37;;;27.30;99.90;;;;;;5068517;28;20268;-72
2021/12/18 11:53:10;;;;;;;26.63;6.10;;;27.30;99.90;;;;;;5068208;28;20620;-71
2021/12/18 11:55:50;;;;;;;24.73;6.37;;;27.30;99.90;;;;;;5067114;28;20238;-71
2021/12/18 11:58:23;;;;;;;22.53;6.20;;;27.40;99.90;;;;;;5071852;28;20243;-70
2021/12/18 12:00:51;;;;;;;18.50;5.43;;;27.40;99.90;;;;;;5071576;28;20277;-71
2021/12/18 12:03:34;;;;;;;28.73;5.93;;;27.40;99.90;;;;;;5071342;28;20168;-70
2021/12/18 12:06:28;;;;;;;24.53;6.03;;;27.40;99.90;;;;;;5071576;28;20179;-71
2021/12/18 12:09:23;;;;;;;26.37;6.43;;;27.40;99.90;;;;;;5067600;28;20187;-69
2021/12/18 12:12:08;;;;;;;6.57;2.43;;;27.30;99.90;;;;;;5071510;28;20522;-70
2021/12/18 12:14:37;;;;;;;9.47;1.10;;;27.80;99.90;;;;;;5069302;28;20191;-72
2021/12/18 12:17:17;;;;;;;1.20;0.60;;;28.10;99.90;;;;;;5071391;28;20178;-67
2021/12/18 12:19:48;;;;;;;4.57;0.60;;;27.90;99.90;;;;;;5071794;28;20539;-69
2021/12/18 12:22:41;;;;;;;2.87;0.83;;;27.50;99.90;;;;;;5069999;28;20668;-70
2021/12/18 12:25:19;;;;;;;4.40;0.70;;;27.30;99.90;;;;;;5070310;28;20175;-68
2021/12/18 12:28:00;;;;;;;1.83;0.50;;;27.10;99.90;;;;;;5071250;28;20361;-68
2021/12/18 12:30:39;;;;;;;2.37;0.70;;;26.90;99.90;;;;;;5070675;28;20608;-68
2021/12/18 12:33:10;;;;;;;0.77;0.40;;;26.80;99.90;;;;;;5068251;28;20183;-67
2021/12/18 12:35:58;;;;;;;1.93;0.70;;;26.50;99.90;;;;;;5078818;28;20191;-68
2021/12/18 12:38:28;;;;;;;2.97;0.60;;;26.30;99.90;;;;;;5070652;28;20199;-66
2021/12/18 12:40:58;;;;;;;11.03;1.57;;;25.70;99.90;;;;;;5071045;28;20184;-68
2021/12/18 12:43:30;;;;;;;10.20;1.60;;;24.40;99.90;;;;;;5070712;28;20201;-65
2021/12/18 12:46:05;;;;;;;11.23;2.20;;;23.30;99.90;;;;;;5071089;28;20262;-66
2021/12/18 12:49:05;;;;;;;4.97;2.00;;;22.80;99.90;;;;;;5071160;28;20193;-67
2021/12/18 12:52:00;;;;;;;4.70;1.10;;;22.60;99.90;;;;;;5071204;28;20419;-68
2021/12/18 12:54:51;;;;;;;4.90;1.57;;;22.60;99.90;;;;;;5070756;28;20306;-67
2021/12/18 12:57:28;;;;;;;3.77;1.40;;;22.70;99.90;;;;;;5070655;28;20606;-67
2021/12/18 13:00:17;;;;;;;3.47;0.90;;;22.70;99.90;;;;;;5071495;28;20245;-67
2021/12/18 13:02:52;;;;;;;1.50;0.73;;;22.70;99.90;;;;;;5070411;28;20167;-67
2021/12/18 13:05:20;;;;;;;3.03;0.70;;;22.80;99.90;;;;;;5071196;28;20232;-69
2021/12/18 13:07:54;;;;;;;4.10;1.03;;;22.80;99.90;;;;;;5073033;28;20198;-68
2021/12/18 13:10:25;;;;;;;7.70;1.50;;;22.70;99.90;;;;;;5074646;28;20268;-66
2021/12/18 13:13:07;;;;;;;6.33;1.33;;;22.70;99.90;;;;;;5073806;28;20195;-68
2021/12/18 13:15:50;;;;;;;2.50;0.90;;;22.40;99.90;;;;;;5073843;28;20187;-67
2021/12/18 13:18:18;;;;;;;3.97;1.40;;;22.10;99.90;;;;;;5072989;28;20547;-67
2021/12/18 13:20:56;;;;;;;5.63;1.03;;;22.00;99.90;;;;;;5074661;28;20187;-66
2021/12/18 13:23:46;;;;;;;3.87;0.90;;;22.00;99.90;;;;;;5074457;28;20244;-66
2021/12/18 13:26:27;;;;;;;4.60;1.10;;;21.80;99.90;;;;;;5073948;28;20225;-67
2021/12/18 13:29:02;;;;;;;4.67;1.10;;;21.90;99.90;;;;;;5074186;28;20226;-66
2021/12/18 13:31:35;;;;;;;3.37;1.17;;;21.90;99.90;;;;;;5073918;28;20195;-68
2021/12/18 13:34:09;;;;;;;3.20;1.13;;;21.90;99.90;;;;;;5074398;28;20178;-66
2021/12/18 13:36:58;;;;;;;5.67;1.50;;;21.90;99.90;;;;;;5072215;28;20190;-66
2021/12/18 13:39:49;;;;;;;2.73;1.30;;;21.90;99.90;;;;;;5072517;28;21177;-68
2021/12/18 13:42:23;;;;;;;4.73;1.57;;;21.80;99.90;;;;;;5072095;28;20189;-67